.
WxDataArchive / Data Records for 2014-06-16
2014-06-15 June 2014 2014-06-17

Data Records for Monday, 16 June 2014

Time	Temp	Chill	HIndex	Humid	Dewpt	 Wind 	HiWind	WindDir	Rain 	Barom
-----	----	-----	------	-----	-----	------	------	-------	-----	-----
00:00	75.6	75.6	77.7	62	61.6	0	0	---	0.00	29.957 
00:05	75.4	75.4	77.5	62	61.5	0	0	---	0.00	29.957 
00:10	75.3	75.3	77.4	63	61.8	0	1	68	0.00	29.957 
00:15	75.1	75.1	77.3	63	61.6	0	0	---	0.00	29.959 
00:20	75.1	75.1	77.3	63	61.6	0	1	68	0.00	29.959 
00:25	74.9	74.9	74.9	63	61.4	0	0	---	0.00	29.959 
00:30	74.7	74.7	74.7	63	61.2	0	1	68	0.00	29.959 
00:35	74.6	74.6	74.6	64	61.6	0	1	68	0.00	29.959 
00:40	74.6	74.6	74.6	64	61.6	0	1	68	0.00	29.959 
00:45	74.4	74.4	74.4	64	61.4	0	1	68	0.00	29.961 
00:50	74.2	74.2	74.2	64	61.2	0	1	68	0.00	29.961 
00:55	74.2	74.2	74.2	65	61.7	0	1	68	0.00	29.961 
01:00	74.0	74.0	74.0	65	61.5	0	0	---	0.00	29.961 
01:05	73.9	73.9	73.9	65	61.4	0	0	---	0.00	29.961 
01:10	73.7	73.7	73.7	65	61.2	0	0	---	0.00	29.961 
01:15	73.5	73.5	73.5	66	61.4	0	0	---	0.00	29.960 
01:20	73.3	73.3	73.3	66	61.2	0	1	68	0.00	29.960 
01:25	73.3	73.3	73.3	67	61.7	0	0	---	0.00	29.960 
01:30	73.2	73.2	73.2	67	61.6	0	0	---	0.00	29.963 
01:35	73.2	73.2	73.2	67	61.6	0	1	68	0.00	29.963 
01:40	73.2	73.2	73.2	68	62.0	0	0	---	0.00	29.963 
01:45	73.2	73.2	73.2	68	62.0	0	2	68	0.00	29.966 
01:50	73.2	73.2	73.2	69	62.4	0	0	---	0.00	29.966 
01:55	73.0	73.0	73.0	69	62.2	0	0	---	0.00	29.966 
02:00	72.8	72.8	72.8	70	62.4	0	1	68	0.00	29.967 
02:05	72.7	72.7	72.7	70	62.3	0	1	68	0.00	29.967 
02:10	72.7	72.7	72.7	71	62.7	0	0	---	0.00	29.967 
02:15	72.5	72.5	72.5	71	62.5	0	0	---	0.00	29.965 
02:20	72.5	72.5	72.5	72	62.9	0	0	---	0.00	29.965 
02:25	72.3	72.3	72.3	72	62.8	0	0	---	0.00	29.965 
02:30	72.1	72.1	72.1	73	63.0	0	0	---	0.00	29.971 
02:35	72.1	72.1	72.1	73	63.0	0	1	68	0.00	29.971 
02:40	72.0	72.0	72.0	74	63.2	0	1	68	0.00	29.971 
02:45	72.0	72.0	72.0	74	63.2	0	1	68	0.00	29.972 
02:50	72.0	72.0	72.0	75	63.6	0	0	---	0.00	29.972 
02:55	72.0	72.0	72.0	76	64.0	0	1	68	0.00	29.972 
03:00	72.1	72.1	72.1	76	64.1	0	0	---	0.00	29.974 
03:05	72.1	72.1	72.1	76	64.1	0	0	---	0.00	29.974 
03:10	72.1	72.1	72.1	77	64.5	0	1	68	0.00	29.974 
03:15	72.1	72.1	72.1	77	64.5	0	1	68	0.00	29.974 
03:20	72.3	72.3	72.3	77	64.7	0	1	68	0.00	29.974 
03:25	72.3	72.3	72.3	78	65.0	0	1	68	0.00	29.974 
03:30	72.5	72.5	72.5	78	65.2	0	1	68	0.00	29.972 
03:35	72.8	72.8	72.8	79	65.9	0	3	68	0.00	29.972 
03:40	73.0	73.0	73.0	78	65.7	0	1	68	0.00	29.972 
03:45	73.2	73.2	73.2	78	65.9	0	1	68	0.00	29.973 
03:50	73.3	73.3	73.3	78	66.0	0	2	68	0.00	29.973 
03:55	73.5	73.5	73.5	78	66.2	0	2	68	0.00	29.973 
04:00	73.5	73.5	73.5	78	66.2	0	1	68	0.00	29.975 
04:05	73.3	73.3	73.3	78	66.0	0	1	68	0.00	29.975 
04:10	73.3	73.3	73.3	78	66.0	0	1	68	0.00	29.975 
04:15	73.3	73.3	73.3	79	66.4	0	1	68	0.00	29.977 
04:20	73.3	73.3	73.3	79	66.4	0	1	68	0.00	29.977 
04:25	73.2	73.2	73.2	79	66.3	0	1	68	0.00	29.977 
04:30	73.2	73.2	73.2	79	66.3	0	0	---	0.00	29.983 
04:35	73.2	73.2	73.2	80	66.6	0	1	68	0.00	29.983 
04:40	73.2	73.2	73.2	80	66.6	0	2	68	0.00	29.983 
04:45	73.2	73.2	73.2	80	66.6	0	2	68	0.00	29.988 
04:50	73.2	73.2	73.2	80	66.6	0	2	68	0.00	29.988 
04:55	73.2	73.2	73.2	80	66.6	0	2	68	0.00	29.988 
05:00	73.3	73.3	73.3	80	66.7	0	2	68	0.00	29.991 
05:05	73.5	73.5	73.5	80	66.9	0	3	68	0.00	29.991 
05:10	73.5	73.5	73.5	79	66.6	0	1	68	0.00	29.991 
05:15	73.5	73.5	73.5	79	66.6	0	1	68	0.00	29.994 
05:20	73.5	73.5	73.5	80	66.9	0	3	68	0.00	29.994 
05:25	73.5	73.5	73.5	80	66.9	0	3	45	0.00	29.994 
05:30	73.7	73.7	73.7	80	67.1	0	2	45	0.00	30.000 
05:35	73.7	73.7	73.7	80	67.1	0	1	45	0.00	30.000 
05:40	73.5	73.5	73.5	80	66.9	0	1	45	0.00	30.000 
05:45	73.5	73.5	73.5	80	66.9	0	1	45	0.00	30.003 
05:50	73.3	73.3	73.3	80	66.7	0	1	45	0.00	30.003 
05:55	73.3	73.3	73.3	81	67.1	0	1	45	0.00	30.003 
06:00	73.2	73.2	73.2	81	67.0	0	3	22	0.00	30.007 
06:05	73.2	73.2	73.2	81	67.0	0	1	22	0.00	30.007 
06:10	73.0	73.0	73.0	81	66.8	0	0	---	0.00	30.007 
06:15	73.0	73.0	73.0	81	66.8	0	1	22	0.00	30.015 
06:20	72.8	72.8	72.8	81	66.6	0	0	---	0.00	30.015 
06:25	72.7	72.7	72.7	82	66.9	0	1	22	0.00	30.015 
06:30	72.7	72.7	72.7	82	66.9	0	1	22	0.00	30.021 
06:35	72.5	72.5	72.5	83	67.0	0	0	---	0.00	30.021 
06:40	72.5	72.5	72.5	83	67.0	0	0	---	0.00	30.021 
06:45	72.3	72.3	72.3	83	66.8	0	0	---	0.00	30.023 
06:50	72.3	72.3	72.3	83	66.8	0	0	---	0.00	30.023 
06:55	72.1	72.1	72.1	84	67.0	0	0	---	0.00	30.023 
07:00	72.1	72.1	72.1	84	67.0	0	0	---	0.00	30.025 
07:05	72.1	72.1	72.1	84	67.0	0	0	---	0.00	30.025 
07:10	72.1	72.1	72.1	84	67.0	0	0	---	0.00	30.025 
07:15	72.0	72.0	72.0	84	66.9	0	0	---	0.00	30.032 
07:20	72.0	72.0	72.0	84	66.9	0	0	---	0.00	30.032 
07:25	72.1	72.1	72.1	85	67.3	0	0	---	0.00	30.032 
07:30	72.3	72.3	72.3	85	67.5	0	1	22	0.00	30.030 
07:35	72.7	72.7	72.7	84	67.6	0	1	22	0.00	30.030 
07:40	72.8	72.8	72.8	84	67.7	0	1	22	0.00	30.030 
07:45	73.2	73.2	73.2	83	67.7	0	0	---	0.00	30.032 
07:50	73.3	73.3	73.3	83	67.8	0	1	22	0.00	30.032 
07:55	73.3	73.3	73.3	82	67.5	0	1	22	0.00	30.032 
08:00	73.7	73.7	73.7	82	67.9	0	1	22	0.00	30.027 
08:05	74.0	74.0	74.0	81	67.8	0	1	22	0.00	30.027 
08:10	74.4	74.4	74.4	80	67.8	0	1	22	0.00	30.027 
08:15	74.7	74.7	74.7	79	67.7	0	2	22	0.00	30.033 
08:20	74.9	74.9	74.9	78	67.6	0	1	22	0.00	30.033 
08:25	75.1	75.1	76.0	78	67.8	0	2	22	0.00	30.033 
08:30	75.4	75.4	76.4	77	67.7	0	2	22	0.00	30.036 
08:35	76.0	76.0	77.3	76	67.9	0	1	22	0.00	30.036 
08:40	76.1	76.1	77.5	75	67.6	0	2	22	0.00	30.036 
08:45	76.5	76.5	78.1	74	67.6	0	1	22	0.00	30.039 
08:50	76.8	76.8	78.4	74	67.9	0	1	22	0.00	30.039 
08:55	77.0	77.0	78.7	73	67.7	0	1	22	0.00	30.039 
09:00	77.4	77.4	79.3	71	67.2	1	3	22	0.00	30.049 
09:05	77.6	77.6	79.5	71	67.4	1	2	22	0.00	30.049 
09:10	77.6	77.6	79.5	71	67.4	0	2	22	0.00	30.049 
09:15	77.7	77.7	79.7	72	67.9	0	1	22	0.00	30.050 
09:20	77.9	77.9	79.9	71	67.7	0	2	22	0.00	30.050 
09:25	78.1	78.1	80.1	68	66.7	0	2	22	0.00	30.050 
09:30	78.5	78.5	80.6	68	67.0	0	2	22	0.00	30.047 
09:35	78.6	78.6	80.7	67	66.7	1	2	22	0.00	30.047 
09:40	78.6	78.6	80.7	67	66.7	0	2	22	0.00	30.047 
09:45	78.5	78.5	80.5	67	66.6	1	3	22	0.00	30.051 
09:50	78.3	78.3	80.3	67	66.4	1	3	22	0.00	30.051 
09:55	78.1	78.1	80.0	67	66.2	1	3	22	0.00	30.051 
10:00	78.3	78.3	80.2	66	66.0	1	3	22	0.00	30.050 
10:05	78.6	78.6	80.6	66	66.3	0	3	22	0.00	30.050 
10:10	78.6	78.6	80.6	65	65.8	1	3	22	0.00	30.050 
10:15	79.0	79.0	81.0	65	66.2	1	4	22	0.00	30.054 
10:20	79.4	79.4	81.4	63	65.7	1	4	292	0.00	30.054 
10:25	79.2	79.2	81.1	62	65.0	1	3	292	0.00	30.054 
10:30	78.6	78.6	80.3	60	63.5	1	3	292	0.00	30.052 
10:35	78.3	78.3	80.1	62	64.2	1	2	292	0.00	30.052 
10:40	78.3	78.3	80.1	63	64.6	0	2	292	0.00	30.052 
10:45	78.3	78.3	80.2	64	65.1	1	2	292	0.00	30.051 
10:50	78.6	78.6	80.5	64	65.4	0	2	292	0.00	30.051 
10:55	78.8	78.8	80.8	65	66.0	0	2	292	0.00	30.051 
11:00	79.0	79.0	80.9	63	65.3	0	2	292	0.00	30.046 
11:05	79.2	79.2	81.0	61	64.6	1	4	292	0.00	30.046 
11:10	79.2	79.2	81.0	61	64.6	1	3	292	0.00	30.046 
11:15	79.4	79.4	81.1	60	64.3	1	2	292	0.00	30.046 
11:20	79.8	79.8	81.7	61	65.1	1	3	292	0.00	30.046 
11:25	80.1	80.1	82.2	62	65.9	1	5	292	0.00	30.046 
11:30	80.5	80.5	82.5	61	65.8	0	2	292	0.00	30.047 
11:35	80.5	80.5	82.2	58	64.3	1	3	292	0.00	30.047 
11:40	80.1	80.1	81.6	57	63.5	1	3	292	0.00	30.047 
11:45	80.1	80.1	81.7	58	64.0	1	3	292	0.00	30.052 
11:50	79.9	79.9	81.6	59	64.3	0	2	292	0.00	30.052 
11:55	80.3	80.3	81.8	57	63.7	1	2	292	0.00	30.052 
12:00	80.9	80.9	82.7	58	64.7	1	3	292	0.00	30.050 
12:05	81.4	81.4	83.1	57	64.7	0	2	292	0.00	30.050 
12:10	82.2	82.2	84.2	57	65.4	1	3	292	0.00	30.050 
12:15	82.6	82.6	84.1	54	64.2	1	3	292	0.00	30.050 
12:20	83.0	83.0	84.7	54	64.6	2	3	292	0.00	30.050 
12:25	83.4	83.4	84.8	52	63.9	1	4	90	0.00	30.050 
12:30	83.8	83.8	85.7	54	65.3	0	2	68	0.00	30.046 
12:35	84.0	84.0	85.6	52	64.4	1	4	270	0.00	30.046 
12:40	84.0	84.0	85.6	52	64.4	0	2	270	0.00	30.046 
12:45	84.0	84.0	85.8	53	65.0	1	3	270	0.00	30.042 
12:50	83.8	83.8	85.3	52	64.3	1	3	270	0.00	30.042 
12:55	83.6	83.6	84.8	51	63.5	1	4	270	0.00	30.042 
13:00	83.8	83.8	85.7	54	65.3	1	4	270	0.00	30.040 
13:05	84.0	84.0	85.1	50	63.3	1	3	270	0.00	30.040 
13:10	83.8	83.8	85.1	51	63.7	2	5	270	0.00	30.040 
13:15	83.8	83.8	85.1	51	63.7	1	4	292	0.00	30.036 
13:20	83.8	83.8	85.1	51	63.7	1	3	292	0.00	30.036 
13:25	84.0	84.0	85.1	50	63.3	1	4	292	0.00	30.036 
13:30	84.3	84.3	86.0	52	64.7	0	2	292	0.00	30.028 
13:35	84.7	84.7	86.0	50	64.0	1	3	292	0.00	30.028 
13:40	84.9	84.9	86.3	50	64.2	1	4	292	0.00	30.028 
13:45	85.1	85.1	86.6	50	64.3	1	3	292	0.00	30.023 
13:50	84.7	84.7	86.0	50	64.0	2	5	292	0.00	30.023 
13:55	84.9	84.9	86.3	50	64.2	1	3	292	0.00	30.023 
14:00	84.9	84.9	86.6	51	64.7	1	3	292	0.00	30.018 
14:05	84.5	84.5	85.8	50	63.8	2	4	292	0.00	30.018 
14:10	84.5	84.5	86.7	54	66.0	0	3	45	0.00	30.018 
14:15	84.7	84.7	86.3	51	64.5	0	1	45	0.00	30.017 
14:20	84.3	84.3	85.7	51	64.2	0	2	22	0.00	30.017 
14:25	84.1	84.1	85.7	52	64.5	1	3	22	0.00	30.017 
14:30	84.7	84.7	86.8	53	65.6	0	1	0	0.00	30.006 
14:35	84.9	84.9	86.6	51	64.7	1	3	22	0.00	30.006 
14:40	84.7	84.7	86.3	51	64.5	0	3	22	0.00	30.006 
14:45	84.9	84.9	86.6	51	64.7	1	3	22	0.00	30.002 
14:50	85.9	85.9	88.0	51	65.6	0	1	0	0.00	30.002 
14:55	86.7	86.7	88.6	49	65.2	1	3	338	0.00	30.002 
15:00	86.7	86.7	88.1	47	64.0	2	6	270	0.00	30.002 
15:05	86.5	86.5	88.3	49	65.0	2	3	270	0.00	30.002 
15:10	85.9	85.9	87.2	48	63.9	2	4	270	0.00	30.002 
15:15	85.5	85.5	86.9	49	64.1	2	4	270	0.00	30.002 
15:20	85.7	85.7	86.9	48	63.7	2	4	270	0.00	30.002 
15:25	85.9	85.9	86.9	47	63.3	1	5	270	0.00	30.002 
15:30	85.9	85.9	87.2	48	63.9	1	3	292	0.00	29.999 
15:35	86.1	86.1	87.8	49	64.7	1	4	292	0.00	29.999 
15:40	86.7	86.7	88.6	49	65.2	0	2	292	0.00	29.999 
15:45	86.7	86.7	88.6	49	65.2	1	2	292	0.00	30.000 
15:50	86.5	86.5	88.6	50	65.6	0	2	292	0.00	30.000 
15:55	86.5	86.5	87.5	46	63.2	2	4	292	0.00	30.000 
16:00	87.2	87.2	89.1	48	65.1	1	3	292	0.00	29.995 
16:05	87.6	87.6	89.1	46	64.2	1	3	292	0.00	29.995 
16:10	87.8	87.8	90.0	48	65.6	0	4	292	0.00	29.995 
16:15	88.2	88.2	90.0	46	64.8	1	4	292	0.00	29.999 
16:20	88.2	88.2	90.0	46	64.8	1	3	292	0.00	29.999 
16:25	88.2	88.2	90.0	46	64.8	1	4	292	0.00	29.999 
16:30	88.2	88.2	89.7	45	64.1	1	3	292	0.00	29.992 
16:35	88.6	88.6	90.6	46	65.1	0	2	292	0.00	29.992 
16:40	89.3	89.3	91.7	46	65.8	0	1	292	0.00	29.992 
16:45	89.0	89.0	90.9	45	64.9	0	3	292	0.00	29.985 
16:50	88.2	88.2	89.3	44	63.5	0	2	292	0.00	29.985 
16:55	87.8	87.8	89.4	46	64.4	1	3	292	0.00	29.985 
17:00	88.0	88.0	89.7	46	64.6	0	2	292	0.00	29.985 
17:05	88.0	88.0	89.4	45	64.0	1	2	292	0.00	29.985 
17:10	88.4	88.4	90.0	45	64.3	0	2	292	0.00	29.985 
17:15	88.4	88.4	90.0	45	64.3	1	3	292	0.00	29.984 
17:20	88.0	88.0	89.7	46	64.6	0	2	292	0.00	29.984 
17:25	87.8	87.8	89.1	45	63.8	1	2	292	0.00	29.984 
17:30	87.4	87.4	88.2	44	62.8	1	3	292	0.00	29.987 
17:35	87.4	87.4	88.2	44	62.8	0	2	292	0.00	29.987 
17:40	87.8	87.8	89.1	45	63.8	1	3	292	0.00	29.987 
17:45	88.2	88.2	90.3	47	65.4	1	3	292	0.00	29.984 
17:50	88.4	88.4	90.0	45	64.3	1	3	292	0.00	29.984 
17:55	88.2	88.2	89.3	44	63.5	1	2	292	0.00	29.984 
18:00	87.6	87.6	88.5	44	63.0	1	5	292	0.00	29.985 
18:05	87.4	87.4	88.8	46	64.0	0	2	292	0.00	29.985 
18:10	87.2	87.2	88.2	45	63.2	0	2	292	0.00	29.985 
18:15	87.2	87.2	88.2	45	63.2	1	3	292	0.00	29.975 
18:20	87.4	87.4	88.2	44	62.8	1	2	292	0.00	29.975 
18:25	87.0	87.0	87.6	44	62.4	1	3	292	0.00	29.975 
18:30	86.1	86.1	86.7	45	62.2	1	2	292	0.00	29.975 
18:35	85.7	85.7	86.2	45	61.9	1	3	292	0.00	29.975 
18:40	85.5	85.5	86.6	48	63.5	0	3	292	0.00	29.975 
18:45	85.5	85.5	86.4	47	62.9	0	2	270	0.00	29.978 
18:50	85.7	85.7	86.4	46	62.5	0	2	270	0.00	29.978 
18:55	85.7	85.7	86.4	46	62.5	0	2	270	0.00	29.978 
19:00	85.7	85.7	86.2	45	61.9	0	1	315	0.00	29.984 
19:05	85.7	85.7	86.4	46	62.5	0	2	315	0.00	29.984 
19:10	85.5	85.5	86.4	47	62.9	0	2	315	0.00	29.984 
19:15	85.5	85.5	86.4	47	62.9	0	3	292	0.00	29.980 
19:20	85.5	85.5	86.6	48	63.5	0	2	292	0.00	29.980 
19:25	85.5	85.5	86.9	49	64.1	0	2	292	0.00	29.980 
19:30	85.5	85.5	87.2	50	64.7	0	1	292	0.00	29.982 
19:35	85.5	85.5	86.6	48	63.5	0	3	292	0.00	29.982 
19:40	85.5	85.5	86.6	48	63.5	0	2	292	0.00	29.982 
19:45	85.5	85.5	86.9	49	64.1	0	2	292	0.00	29.978 
19:50	85.3	85.3	86.6	49	63.9	0	0	---	0.00	29.978 
19:55	85.1	85.1	86.4	49	63.8	0	1	292	0.00	29.978 
20:00	84.9	84.9	86.3	50	64.2	0	1	292	0.00	29.978 
20:05	84.9	84.9	86.3	50	64.2	0	2	292	0.00	29.978 
20:10	84.7	84.7	86.0	50	64.0	0	4	90	0.00	29.978 
20:15	84.5	84.5	85.8	50	63.8	0	2	90	0.00	29.976 
20:20	84.3	84.3	85.5	50	63.6	0	0	---	0.00	29.976 
20:25	84.1	84.1	85.5	51	64.0	0	0	---	0.00	29.976 
20:30	83.8	83.8	85.1	51	63.7	0	1	90	0.00	29.975 
20:35	83.6	83.6	85.0	52	64.1	0	0	---	0.00	29.975 
20:40	83.2	83.2	84.5	52	63.7	0	1	90	0.00	29.975 
20:45	83.0	83.0	84.5	53	64.1	0	0	---	0.00	29.973 
20:50	82.8	82.8	84.4	54	64.4	0	0	---	0.00	29.973 
20:55	82.4	82.4	83.9	54	64.1	0	0	---	0.00	29.973 
21:00	82.0	82.0	83.6	55	64.2	0	0	---	0.00	29.972 
21:05	81.6	81.6	83.2	56	64.4	0	0	---	0.00	29.972 
21:10	81.2	81.2	82.9	57	64.5	0	0	---	0.00	29.972 
21:15	80.9	80.9	82.7	58	64.7	0	0	---	0.00	29.972 
21:20	80.5	80.5	82.3	59	64.8	0	0	---	0.00	29.972 
21:25	80.1	80.1	82.0	61	65.4	0	0	---	0.00	29.972 
21:30	79.6	79.6	81.5	62	65.4	0	0	---	0.00	29.967 
21:35	79.2	79.2	81.1	62	65.0	0	0	---	0.00	29.967 
21:40	79.0	79.0	81.0	64	65.8	0	0	---	0.00	29.967 
21:45	78.6	78.6	80.5	64	65.4	0	0	---	0.00	29.958 
21:50	78.5	78.5	80.4	65	65.7	0	0	---	0.00	29.958 
21:55	78.1	78.1	80.0	65	65.4	0	0	---	0.00	29.958 
22:00	77.9	77.9	79.7	65	65.2	0	0	---	0.00	29.960 
22:05	77.9	77.9	79.8	66	65.6	0	0	---	0.00	29.960 
22:10	77.7	77.7	79.6	67	65.8	0	1	90	0.00	29.960 
22:15	77.6	77.6	79.5	68	66.2	0	0	---	0.00	29.954 
22:20	77.4	77.4	79.2	68	66.0	0	0	---	0.00	29.954 
22:25	77.2	77.2	79.0	69	66.2	0	0	---	0.00	29.954 
22:30	77.2	77.2	79.0	70	66.6	0	0	---	0.00	29.962 
22:35	77.2	77.2	79.0	71	67.0	0	0	---	0.00	29.962 
22:40	77.4	77.4	79.3	72	67.6	0	0	---	0.00	29.962 
22:45	77.4	77.4	79.3	72	67.6	0	0	---	0.00	29.972 
22:50	77.6	77.6	79.5	73	68.2	0	0	---	0.00	29.972 
22:55	77.6	77.6	79.5	73	68.2	0	0	---	0.00	29.972 
23:00	77.6	77.6	79.5	73	68.2	0	0	---	0.00	29.982 
23:05	77.6	77.6	79.5	73	68.2	0	0	---	0.00	29.982 
23:10	77.7	77.7	79.7	73	68.3	0	1	90	0.00	29.982 
23:15	77.7	77.7	79.7	73	68.3	0	0	---	0.00	29.989 
23:20	77.9	77.9	80.0	73	68.5	0	1	90	0.00	29.989 
23:25	77.9	77.9	80.0	73	68.5	0	1	90	0.00	29.989 
23:30	77.9	77.9	80.0	73	68.5	0	0	---	0.00	29.985 
23:35	77.9	77.9	80.0	74	68.9	0	1	90	0.00	29.985 
23:40	77.7	77.7	79.7	74	68.7	0	0	---	0.00	29.985 
23:45	77.7	77.7	79.7	75	69.1	0	1	90	0.00	29.983 
23:50	77.7	77.7	79.7	75	69.1	0	0	---	0.00	29.983 
23:55	77.7	77.7	79.7	75	69.1	0	0	---	0.00	29.983 

CoCoRaHS
IN-AL-39
A2 Web Hosting
Creative Commons License
GoDaddy
search engine by freefind advanced

loaded 2018-11-17 18:55:29 • last modified 2010-11-18 10:43:29
Privacy PolicyDisclaimer
• wx.awcolley.com is powered by PmWiki v.2002016 •
• all content (unless otherwise noted) © 2018 A W Colley